地図

経路データ

SID SEASON NUMBER BASIN SUBBASIN NAME ISO_TIME NATURE LAT LON WMO_WIND WMO_PRES WMO_AGENCY TRACK_TYPE DIST2LAND LANDFALL IFLAG USA_AGENCY USA_ATCF_ID USA_LAT USA_LON USA_RECORD USA_STATUS USA_WIND USA_PRES USA_SSHS USA_R34_NE USA_R34_SE USA_R34_SW USA_R34_NW USA_R50_NE USA_R50_SE USA_R50_SW USA_R50_NW USA_R64_NE USA_R64_SE USA_R64_SW USA_R64_NW USA_POCI USA_ROCI USA_RMW USA_EYE TOKYO_LAT TOKYO_LON TOKYO_GRADE TOKYO_WIND TOKYO_PRES TOKYO_R50_DIR TOKYO_R50_LONG TOKYO_R50_SHORT TOKYO_R30_DIR TOKYO_R30_LONG TOKYO_R30_SHORT TOKYO_LAND CMA_LAT CMA_LON CMA_CAT CMA_WIND CMA_PRES HKO_LAT HKO_LON HKO_CAT HKO_WIND HKO_PRES NEWDELHI_LAT NEWDELHI_LON NEWDELHI_GRADE NEWDELHI_WIND NEWDELHI_PRES NEWDELHI_CI NEWDELHI_DP NEWDELHI_POCI REUNION_LAT REUNION_LON REUNION_TYPE REUNION_WIND REUNION_PRES REUNION_TNUM REUNION_CI REUNION_RMW REUNION_R34_NE REUNION_R34_SE REUNION_R34_SW REUNION_R34_NW REUNION_R50_NE REUNION_R50_SE REUNION_R50_SW REUNION_R50_NW REUNION_R64_NE REUNION_R64_SE REUNION_R64_SW REUNION_R64_NW BOM_LAT BOM_LON BOM_TYPE BOM_WIND BOM_PRES BOM_TNUM BOM_CI BOM_RMW BOM_R34_NE BOM_R34_SE BOM_R34_SW BOM_R34_NW BOM_R50_NE BOM_R50_SE BOM_R50_SW BOM_R50_NW BOM_R64_NE BOM_R64_SE BOM_R64_SW BOM_R64_NW BOM_ROCI BOM_POCI BOM_EYE BOM_POS_METHOD BOM_PRES_METHOD NADI_LAT NADI_LON NADI_CAT NADI_WIND NADI_PRES WELLINGTON_LAT WELLINGTON_LON WELLINGTON_WIND WELLINGTON_PRES DS824_LAT DS824_LON DS824_STAGE DS824_WIND DS824_PRES TD9636_LAT TD9636_LON TD9636_STAGE TD9636_WIND TD9636_PRES TD9635_LAT TD9635_LON TD9635_WIND TD9635_PRES TD9635_ROCI NEUMANN_LAT NEUMANN_LON NEUMANN_CLASS NEUMANN_WIND NEUMANN_PRES MLC_LAT MLC_LON MLC_CLASS MLC_WIND MLC_PRES USA_GUST BOM_GUST BOM_GUST_PER REUNION_GUST REUNION_GUST_PER USA_SEAHGT USA_SEARAD_NE USA_SEARAD_SE USA_SEARAD_SW USA_SEARAD_NW STORM_SPEED STORM_DIR
1905166N18117 1905 21 WP MM NOT_NAMED 1905-06-14 16:00:00 NR 18.2000 116.700 main 386 386 __________O___ -1 18.2000 116.700 7 3 313
1905166N18117 1905 21 WP MM NOT_NAMED 1905-06-14 18:00:00 NR 18.2608 116.632 main 399 399 __________P___ -1 18.2608 116.632 7 3 311
1905166N18117 1905 21 WP MM NOT_NAMED 1905-06-14 21:00:00 NR 18.3479 116.524 main 409 411 __________P___ -1 18.3479 116.524 7 3 307
1905166N18117 1905 21 WP MM NOT_NAMED 1905-06-15 00:00:00 NR 18.4246 116.401 main 422 422 __________P___ -1 18.4246 116.401 7 3 298
1905166N18117 1905 21 WP MM NOT_NAMED 1905-06-15 03:00:00 NR 18.4847 116.255 main 434 445 __________P___ -1 18.4847 116.255 7 3 292
1905166N18117 1905 21 WP MM NOT_NAMED 1905-06-15 04:00:00 NR 18.5000 116.200 main 445 445 __________O___ -1 18.5000 116.200 7 3 283
1905166N18117 1905 21 WP MM NOT_NAMED 1905-06-15 06:00:00 NR 18.5234 116.078 main 455 446 __________P___ -1 18.5234 116.078 7 4 280
1905166N18117 1905 21 WP MM NOT_NAMED 1905-06-15 09:00:00 NR 18.5517 115.877 main 446 438 __________P___ -1 18.5517 115.877 7 4 280
1905166N18117 1905 21 WP MM NOT_NAMED 1905-06-15 12:00:00 NR 18.5915 115.667 main 438 421 __________P___ -1 18.5915 115.667 7 4 286
1905166N18117 1905 21 WP MM NOT_NAMED 1905-06-15 15:00:00 NR 18.6645 115.464 main 421 418 __________P___ -1 18.6645 115.464 7 4 293
1905166N18117 1905 21 WP MM NOT_NAMED 1905-06-15 16:00:00 NR 18.7000 115.400 main 418 405 __________O___ -1 18.7000 115.400 7 5 307
1905166N18117 1905 21 WP MM NOT_NAMED 1905-06-15 18:00:00 NR 18.8069 115.268 main 405 378 __________P___ -1 18.8069 115.268 7 5 315
1905166N18117 1905 21 WP MM NOT_NAMED 1905-06-15 21:00:00 NR 19.0054 115.082 main 378 352 __________P___ -1 19.0054 115.082 7 5 322
1905166N18117 1905 21 WP MM NOT_NAMED 1905-06-16 00:00:00 NR 19.2245 114.926 main 352 328 __________P___ -1 19.2245 114.926 7 5 330
1905166N18117 1905 21 WP MM NOT_NAMED 1905-06-16 03:00:00 NR 19.4360 114.821 main 328 317 __________P___ -1 19.4360 114.821 7 5 336
1905166N18117 1905 21 WP MM NOT_NAMED 1905-06-16 04:00:00 NR 19.5000 114.800 main 317 306 __________O___ -1 19.5000 114.800 3 3 348
1905166N18117 1905 21 WP MM NOT_NAMED 1905-06-16 06:00:00 NR 19.6004 114.782 main 306 295 __________P___ -1 19.6004 114.782 3 3 0
1905166N18117 1905 21 WP MM NOT_NAMED 1905-06-16 09:00:00 NR 19.7321 114.806 main 295 284 __________P___ -1 19.7321 114.806 3 3 20
1905166N18117 1905 21 WP MM NOT_NAMED 1905-06-16 12:00:00 NR 19.8496 114.874 main 286 267 __________P___ -1 19.8496 114.874 3 3 34
1905166N18117 1905 21 WP MM NOT_NAMED 1905-06-16 15:00:00 NR 19.9620 114.967 main 267 267 __________P___ -1 19.9620 114.967 3 3 38
1905166N18117 1905 21 WP MM NOT_NAMED 1905-06-16 16:00:00 NR 20.0000 115.000 main 267 256 __________O___ -1 20.0000 115.000 4 2 17
1905166N18117 1905 21 WP MM NOT_NAMED 1905-06-16 18:00:00 NR 20.0620 115.014 main 256 245 __________P___ -1 20.0620 115.014 4 2 12
1905166N18117 1905 21 WP MM NOT_NAMED 1905-06-16 21:00:00 NR 20.1545 115.046 main 245 238 __________P___ -1 20.1545 115.046 4 2 28
1905166N18117 1905 21 WP MM NOT_NAMED 1905-06-17 00:00:00 NR 20.2691 115.131 main 238 231 __________P___ -1 20.2691 115.131 4 4 42
1905166N18117 1905 21 WP MM NOT_NAMED 1905-06-17 03:00:00 NR 20.4311 115.311 main 236 226 __________P___ -1 20.4311 115.311 4 5 48
1905166N18117 1905 21 WP MM NOT_NAMED 1905-06-17 04:00:00 NR 20.5000 115.400 main 229 213 __________O___ -1 20.5000 115.400 4 8 51
1905166N18117 1905 21 WP MM NOT_NAMED 1905-06-17 06:00:00 NR 20.6846 115.641 main 213 191 __________P___ -1 20.6846 115.641 4 10 52
1905166N18117 1905 21 WP MM NOT_NAMED 1905-06-17 09:00:00 NR 21.0119 116.104 main 192 164 __________P___ -1 21.0119 116.104 4 12 54
1905166N18117 1905 21 WP MM NOT_NAMED 1905-06-17 12:00:00 NR 21.3635 116.645 main 164 152 __________P___ -1 21.3635 116.645 4 12 56
1905166N18117 1905 21 WP MM NOT_NAMED 1905-06-17 15:00:00 NR 21.6988 117.213 main 152 147 __________P___ -1 21.6988 117.213 4 12 58
1905166N18117 1905 21 WP MM NOT_NAMED 1905-06-17 16:00:00 NR 21.8000 117.400 main 153 151 __________O___ -1 21.8000 117.400 4 10 61
1905166N18117 1905 21 WP MM NOT_NAMED 1905-06-17 18:00:00 NR 21.9389 117.678 main 166 159 __________P___ -1 21.9389 117.678 4 9 64
1905166N18117 1905 21 WP MM NOT_NAMED 1905-06-17 21:00:00 NR 22.1159 118.093 main 186 173 __________P___ -1 22.1159 118.093 4 9 67
1905166N18117 1905 21 WP MM NOT_NAMED 1905-06-18 00:00:00 NR 22.2927 118.565 main 173 107 __________P___ -1 22.2927 118.565 4 11 68
1905166N18117 1905 21 WP MM NOT_NAMED 1905-06-18 03:00:00 NR 22.5110 119.161 main 107 85 __________P___ -1 22.5110 119.161 4 12 68
1905166N18117 1905 21 WP MM NOT_NAMED 1905-06-18 04:00:00 NR 22.6000 119.400 main 85 20 __________O___ -1 22.6000 119.400 4 17 70
1905166N18117 1905 21 WP MM NOT_NAMED 1905-06-18 06:00:00 NR 22.8093 120.035 main 20 0 __________P___ -1 22.8093 120.035 4 20 70
1905166N18117 1905 21 WP MM NOT_NAMED 1905-06-18 09:00:00 NR 23.1715 121.130 main 0 0 __________P___ -1 23.1715 121.130 4 22 69
1905166N18117 1905 21 WP MM NOT_NAMED 1905-06-18 12:00:00 NR 23.5833 122.267 main 82 82 __________P___ -1 23.5833 122.267 4 22 66
1905166N18117 1905 21 WP MM NOT_NAMED 1905-06-18 15:00:00 NR 24.0388 123.303 main 152 158 __________P___ -1 24.0388 123.303 4 21 63
1905166N18117 1905 21 WP MM NOT_NAMED 1905-06-18 16:00:00 NR 24.2000 123.600 main 175 175 __________O___ -1 24.2000 123.600 4 18 56
1905166N18117 1905 21 WP MM NOT_NAMED 1905-06-18 18:00:00 NR 24.5359 124.101 main 219 216 __________P___ -1 24.5359 124.101 4 16 48
1905166N18117 1905 21 WP MM NOT_NAMED 1905-06-18 21:00:00 NR 25.0693 124.654 main 272 272 __________P___ -1 25.0693 124.654 4 14 38
1905166N18117 1905 21 WP MM NOT_NAMED 1905-06-19 00:00:00 NR 25.6299 125.034 main 308 320 __________P___ -1 25.6299 125.034 4 13 28
1905166N18117 1905 21 WP MM NOT_NAMED 1905-06-19 03:00:00 NR 26.2064 125.315 main 356 356 __________P___ -1 26.2064 125.315 4 13 23
1905166N18117 1905 21 WP MM NOT_NAMED 1905-06-19 04:00:00 NR 26.4000 125.400 main 374 __________O___ -1 26.4000 125.400 4 13 22

デジタル台風データ・検索

IBTrACS Databaseについて

本データベースは、米国NOAAが公開する1842年以降の世界の熱帯低気圧のベストトラックデータアーカイブInternational Best Track Archive for Climate Stewardship (IBTrACS)を、ウェブで閲覧しやすい形式に変換したものです。

最終更新日:2021-10-27